Time;durP1;ratioP1;P1;durP2;ratioP2;P2;SDS_P1;SDS_P2;PMS_P1;PMS_P2;Temp;Humidity;BMP_temperature;BMP_pressure;BME280_temperature;BME280_humidity;BME280_pressure;Samples;Min_cycle;Max_cycle;Signal;HPM_P1;HPM_P2
2024/01/24 00:01:31;;;;;;;9.90;3.35;;;;;;;4.98;100.00;98718.00;5062345;28;20032;-74
2024/01/24 00:03:56;;;;;;;10.98;4.00;;;;;;;4.99;100.00;98707.22;5058916;28;20044;-74
2024/01/24 00:06:21;;;;;;;11.68;5.22;;;;;;;5.02;100.00;98705.97;5067077;28;20082;-75
2024/01/24 00:08:48;;;;;;;15.80;3.88;;;;;;;5.01;100.00;98691.13;5066921;28;20036;-74
2024/01/24 00:11:13;;;;;;;10.73;5.25;;;;;;;5.03;100.00;98691.72;5061799;28;20715;-74
2024/01/24 00:13:39;;;;;;;5.35;3.38;;;;;;;5.01;100.00;98691.13;5056969;28;20115;-74
2024/01/24 00:16:04;;;;;;;4.93;3.35;;;;;;;5.04;100.00;98695.97;5064828;28;20075;-74
2024/01/24 00:18:30;;;;;;;8.32;4.13;;;;;;;5.06;100.00;98689.47;5059819;28;20059;-75
2024/01/24 00:20:55;;;;;;;7.38;3.40;;;;;;;5.04;100.00;98695.97;5064332;28;20044;-74
2024/01/24 00:23:20;;;;;;;11.85;4.80;;;;;;;5.09;100.00;98674.97;5066639;28;20033;-74
2024/01/24 00:25:46;;;;;;;7.80;3.45;;;;;;;5.08;100.00;98674.19;5066817;28;20048;-74
2024/01/24 00:28:14;;;;;;;7.88;4.90;;;;;;;5.07;100.00;98669.91;5064147;28;20495;-74
2024/01/24 00:30:40;;;;;;;10.98;4.13;;;;;;;5.11;100.00;98659.72;5060989;28;20048;-74
2024/01/24 00:33:05;;;;;;;5.90;3.65;;;;;;;5.13;100.00;98652.38;5063194;28;20028;-74
2024/01/24 00:35:31;;;;;;;13.75;5.28;;;;;;;5.11;100.00;98659.72;5072163;28;20469;-75
2024/01/24 00:37:56;;;;;;;10.52;5.50;;;;;;;5.13;100.00;98661.09;5067654;28;20094;-74
2024/01/24 00:40:22;;;;;;;13.00;4.88;;;;;;;5.15;100.00;98658.25;5055748;28;20032;-74
2024/01/24 00:42:47;;;;;;;10.60;4.20;;;;;;;5.17;100.00;98658.84;5057877;28;20509;-75
2024/01/24 00:45:13;;;;;;;4.75;3.75;;;;;;;5.18;100.00;98649.84;5056448;28;20401;-75
2024/01/24 00:47:39;;;;;;;9.20;4.90;;;;;;;5.20;100.00;98651.25;5061304;28;20035;-74
2024/01/24 00:50:06;;;;;;;13.13;4.75;;;;;;;5.22;100.00;98653.69;5065609;28;20469;-74
2024/01/24 00:52:32;;;;;;;9.23;5.03;;;;;;;5.25;100.00;98647.94;5069684;28;20033;-75
2024/01/24 00:54:57;;;;;;;15.35;4.45;;;;;;;5.24;100.00;98623.31;5063820;28;20036;-74
2024/01/24 00:57:23;;;;;;;11.98;4.93;;;;;;;5.25;100.00;98619.66;5064551;28;20096;-74
2024/01/24 00:59:48;;;;;;;9.98;4.32;;;;;;;5.29;100.00;98630.59;5071807;28;20016;-74
2024/01/24 01:02:13;;;;;;;11.13;4.88;;;;;;;5.31;100.00;98642.59;5042876;28;20036;-74
2024/01/24 01:04:39;;;;;;;8.48;4.57;;;;;;;5.29;100.00;98612.91;5059278;28;20439;-74
2024/01/24 01:07:04;;;;;;;17.40;6.63;;;;;;;5.37;100.00;98618.94;5062249;28;20439;-74
2024/01/24 01:09:29;;;;;;;11.18;4.40;;;;;;;5.35;100.00;98613.88;5064986;28;20028;-74
2024/01/24 01:11:55;;;;;;;7.68;4.28;;;;;;;5.36;100.00;98617.31;5060379;28;20056;-74
2024/01/24 01:14:20;;;;;;;9.05;4.03;;;;;;;5.33;100.00;98631.78;5063812;28;20029;-74
2024/01/24 01:16:46;;;;;;;6.38;3.63;;;;;;;5.36;100.00;98615.47;5069321;28;20045;-74
2024/01/24 01:19:11;;;;;;;12.90;4.90;;;;;;;5.38;100.00;98604.66;5067555;28;20064;-74
2024/01/24 01:21:39;;;;;;;10.10;5.18;;;;;;;5.38;100.00;98621.34;5061137;28;20033;-75
2024/01/24 01:24:04;;;;;;;11.40;5.22;;;;;;;5.42;100.00;98605.88;5065077;28;20660;-74
2024/01/24 01:26:32;;;;;;;5.13;3.83;;;;;;;5.47;100.00;98595.41;5067900;28;20064;-74
2024/01/24 01:28:57;;;;;;;6.68;2.95;;;;;;;5.52;100.00;98596.38;5056826;28;20063;-74
2024/01/24 01:31:23;;;;;;;14.15;3.33;;;;;;;5.51;100.00;98583.34;5065452;28;20501;-74
2024/01/24 01:33:48;;;;;;;5.10;2.60;;;;;;;5.52;100.00;98584.97;5064660;28;20608;-74
2024/01/24 01:36:13;;;;;;;8.13;4.25;;;;;;;5.55;100.00;98574.72;5059335;28;20033;-74
2024/01/24 01:38:38;;;;;;;9.43;3.50;;;;;;;5.60;100.00;98559.00;5067916;28;20028;-74
2024/01/24 01:41:04;;;;;;;6.63;3.75;;;;;;;5.64;100.00;98540.81;5064741;28;20029;-75
2024/01/24 01:43:29;;;;;;;10.63;3.53;;;;;;;5.64;100.00;98528.38;5062284;28;20025;-75
2024/01/24 01:45:59;;;;;;;9.60;3.95;;;;;;;5.66;100.00;98530.81;5065907;28;20075;-73
2024/01/24 01:48:27;;;;;;;5.53;3.13;;;;;;;5.71;100.00;98512.41;5068357;28;20040;-74
2024/01/24 01:50:53;;;;;;;7.18;5.25;;;;;;;5.74;100.00;98511.97;5067724;28;20654;-74
2024/01/24 01:53:19;;;;;;;4.88;2.97;;;;;;;5.74;100.00;98496.91;5062757;28;20097;-74
2024/01/24 01:55:44;;;;;;;7.95;2.80;;;;;;;5.77;100.00;98491.13;5061039;28;20029;-74
2024/01/24 01:58:10;;;;;;;2.35;2.15;;;;;;;5.82;100.00;98501.88;5060530;28;20040;-74
2024/01/24 02:00:36;;;;;;;5.50;2.90;;;;;;;5.85;100.00;98503.28;5066144;28;20473;-74
2024/01/24 02:03:02;;;;;;;6.43;2.17;;;;;;;5.89;100.00;98507.09;5061871;28;20035;-74
2024/01/24 02:05:28;;;;;;;2.83;2.40;;;;;;;5.88;100.00;98497.53;5063644;28;20020;-74
2024/01/24 02:07:53;;;;;;;5.63;2.90;;;;;;;5.90;100.00;98490.97;5058271;28;20115;-74
2024/01/24 02:10:19;;;;;;;7.45;2.92;;;;;;;5.93;100.00;98495.81;5057670;28;20533;-74
2024/01/24 02:12:44;;;;;;;3.30;2.55;;;;;;;5.96;100.00;98482.09;5063346;28;20024;-74
2024/01/24 02:15:10;;;;;;;5.13;2.33;;;;;;;5.97;100.00;98472.31;5066387;28;20032;-74
2024/01/24 02:17:35;;;;;;;4.97;3.28;;;;;;;6.01;100.00;98466.34;5064676;28;20060;-74
2024/01/24 02:20:01;;;;;;;3.08;2.67;;;;;;;6.05;100.00;98472.78;5060120;28;20041;-74
2024/01/24 02:22:26;;;;;;;7.32;2.58;;;;;;;6.07;100.00;98490.31;5059473;28;20144;-75
2024/01/24 02:24:52;;;;;;;4.20;1.88;;;;;;;6.12;100.00;98464.75;5060068;28;20037;-75
2024/01/24 02:27:17;;;;;;;3.33;2.05;;;;;;;6.08;100.00;98455.66;5065955;28;20094;-74
2024/01/24 02:29:42;;;;;;;10.90;2.75;;;;;;;6.13;100.00;98469.03;5069848;28;20028;-75
2024/01/24 02:32:08;;;;;;;8.25;3.08;;;;;;;6.13;100.00;98462.91;5073434;28;20118;-74
2024/01/24 02:34:33;;;;;;;8.07;2.25;;;;;;;6.13;100.00;98444.34;5072447;28;20085;-74
2024/01/24 02:36:58;;;;;;;3.88;2.28;;;;;;;6.21;100.00;98457.25;5065331;28;20107;-74
2024/01/24 02:39:24;;;;;;;9.55;2.55;;;;;;;6.18;100.00;98431.25;5072521;28;20067;-75
2024/01/24 02:41:49;;;;;;;3.75;2.13;;;;;;;6.19;100.00;98422.25;5073366;28;20875;-75
2024/01/24 02:44:14;;;;;;;3.92;1.60;;;;;;;6.21;100.00;98407.72;5078607;28;20032;-75
2024/01/24 02:46:40;;;;;;;1.75;1.65;;;;;;;6.24;100.00;98409.09;5069274;28;20066;-75
2024/01/24 02:49:05;;;;;;;3.22;1.95;;;;;;;6.23;100.00;98395.03;5059657;28;20028;-75
2024/01/24 02:51:30;;;;;;;2.67;2.40;;;;;;;6.30;100.00;98416.94;5066350;28;20028;-75
2024/01/24 02:53:56;;;;;;;4.88;2.25;;;;;;;6.29;100.00;98399.41;5072514;28;20064;-75
2024/01/24 02:56:21;;;;;;;4.80;1.67;;;;;;;6.32;100.00;98422.00;5070527;28;20040;-75
2024/01/24 02:58:47;;;;;;;3.78;2.47;;;;;;;6.33;100.00;98413.84;5064047;28;20032;-75
2024/01/24 03:01:12;;;;;;;5.20;2.50;;;;;;;6.32;100.00;98412.22;5060241;28;20044;-74
2024/01/24 03:03:39;;;;;;;4.07;2.60;;;;;;;6.37;100.00;98404.38;5067717;28;20024;-75
2024/01/24 03:06:05;;;;;;;6.40;2.50;;;;;;;6.36;100.00;98401.94;5068042;28;20421;-74
2024/01/24 03:08:45;;;;;;;2.17;1.98;;;;;;;6.41;100.00;98397.56;5064121;28;20048;-74
2024/01/24 03:11:10;;;;;;;2.70;1.80;;;;;;;6.45;100.00;98393.41;5065974;28;20676;-74
2024/01/24 03:13:35;;;;;;;3.53;2.30;;;;;;;6.46;100.00;98379.13;5072489;28;20051;-74
2024/01/24 03:16:01;;;;;;;2.15;1.80;;;;;;;6.44;100.00;98393.66;5076738;28;20055;-74
2024/01/24 03:18:26;;;;;;;2.22;1.70;;;;;;;6.47;100.00;98399.28;5064518;28;20382;-74
2024/01/24 03:20:52;;;;;;;2.80;1.52;;;;;;;6.51;100.00;98392.47;5063539;28;20478;-74
2024/01/24 03:23:17;;;;;;;2.42;1.73;;;;;;;6.50;100.00;98379.47;5061847;28;20390;-74
2024/01/24 03:25:42;;;;;;;4.28;1.88;;;;;;;6.56;100.00;98382.00;5066385;28;20032;-74
2024/01/24 03:28:08;;;;;;;2.63;2.00;;;;;;;6.57;100.00;98374.84;5061126;28;20075;-74
2024/01/24 03:30:33;;;;;;;3.42;2.17;;;;;;;6.56;100.00;98374.03;5059926;28;20072;-75
2024/01/24 03:33:00;;;;;;;4.40;2.17;;;;;;;6.58;100.00;98393.16;5061134;28;20060;-74
2024/01/24 03:35:26;;;;;;;2.58;1.63;;;;;;;6.61;100.00;98405.97;5067954;28;20055;-74
2024/01/24 03:37:51;;;;;;;4.47;2.17;;;;;;;6.59;100.00;98401.94;5063995;28;20401;-75
2024/01/24 03:40:17;;;;;;;4.25;2.40;;;;;;;6.56;100.00;98376.69;5070356;28;20473;-75
2024/01/24 03:42:42;;;;;;;9.57;1.98;;;;;;;6.59;100.00;98378.06;5058320;28;20037;-74
2024/01/24 03:45:08;;;;;;;2.05;1.85;;;;;;;6.63;100.00;98390.63;5063390;28;20037;-75
2024/01/24 03:47:33;;;;;;;1.92;1.73;;;;;;;6.65;100.00;98396.50;5064520;28;20464;-75
2024/01/24 03:49:59;;;;;;;7.47;2.53;;;;;;;6.63;100.00;98379.22;5069832;28;20062;-74
2024/01/24 03:52:24;;;;;;;6.82;2.47;;;;;;;6.68;100.00;98387.28;5067640;28;20100;-74
2024/01/24 03:54:49;;;;;;;1.90;1.80;;;;;;;6.71;100.00;98373.53;5073680;28;20464;-75
2024/01/24 03:57:15;;;;;;;4.00;1.92;;;;;;;6.72;100.00;98378.63;5059346;28;20144;-74
2024/01/24 03:59:40;;;;;;;2.95;1.98;;;;;;;6.76;100.00;98390.34;5066484;28;20024;-74
2024/01/24 04:02:05;;;;;;;1.60;1.50;;;;;;;6.82;100.00;98383.28;5063695;28;20389;-75
2024/01/24 04:04:31;;;;;;;2.20;1.60;;;;;;;6.79;100.00;98389.88;5069420;28;20040;-75
2024/01/24 04:06:56;;;;;;;5.90;1.85;;;;;;;6.85;100.00;98393.44;5069838;28;20039;-74
2024/01/24 04:09:22;;;;;;;5.03;1.70;;;;;;;6.86;100.00;98378.34;5074122;28;20040;-74
2024/01/24 04:11:47;;;;;;;2.00;1.80;;;;;;;6.84;100.00;98361.88;5064971;28;20029;-75
2024/01/24 04:14:13;;;;;;;3.33;1.67;;;;;;;6.90;100.00;98356.41;5057731;28;20064;-75
2024/01/24 04:16:39;;;;;;;3.10;2.10;;;;;;;6.90;100.00;98364.38;5057863;28;20039;-75
2024/01/24 04:19:04;;;;;;;3.05;1.58;;;;;;;6.89;100.00;98370.72;5058272;28;20131;-75
2024/01/24 04:21:30;;;;;;;2.63;2.30;;;;;;;6.97;100.00;98353.63;5063482;28;20029;-75
2024/01/24 04:23:55;;;;;;;1.25;1.15;;;;;;;6.95;100.00;98359.16;5060302;28;20056;-75
2024/01/24 04:26:21;;;;;;;1.55;1.45;;;;;;;6.99;100.00;98365.59;5064087;28;20029;-75
2024/01/24 04:28:46;;;;;;;1.55;1.45;;;;;;;6.99;100.00;98372.75;5068779;28;20036;-75
2024/01/24 04:31:12;;;;;;;2.90;1.40;;;;;;;7.05;100.00;98377.13;5070971;28;20028;-75
2024/01/24 04:33:37;;;;;;;3.20;2.10;;;;;;;7.02;100.00;98370.44;5066718;28;20028;-74
2024/01/24 04:36:03;;;;;;;2.42;1.85;;;;;;;7.05;100.00;98382.41;5068795;28;20032;-74
2024/01/24 04:38:28;;;;;;;2.58;1.20;;;;;;;7.07;100.00;98386.44;5067297;28;20033;-74
2024/01/24 04:40:53;;;;;;;1.85;1.50;;;;;;;7.10;100.00;98385.19;5067294;28;20538;-74
2024/01/24 04:43:19;;;;;;;0.77;0.77;;;;;;;7.10;100.00;98387.84;5053532;28;20037;-75
2024/01/24 04:45:45;;;;;;;3.58;1.50;;;;;;;7.11;100.00;98394.72;5068639;28;20041;-75
2024/01/24 04:48:10;;;;;;;2.60;1.73;;;;;;;7.13;100.00;98374.06;5064175;28;20524;-75
2024/01/24 04:50:35;;;;;;;2.03;1.52;;;;;;;7.12;100.00;98364.50;5069825;28;20086;-75
2024/01/24 04:53:01;;;;;;;4.07;1.35;;;;;;;7.13;100.00;98368.75;5065788;28;20138;-74
2024/01/24 04:55:26;;;;;;;1.80;1.38;;;;;;;7.14;100.00;98373.03;5060563;28;20082;-74
2024/01/24 04:57:51;;;;;;;2.75;2.20;;;;;;;7.15;100.00;98372.78;5060110;28;20094;-75
2024/01/24 05:00:17;;;;;;;2.17;1.45;;;;;;;7.18;100.00;98372.34;5054701;28;20029;-75
2024/01/24 05:02:42;;;;;;;1.38;1.27;;;;;;;7.18;100.00;98369.69;5062167;28;20052;-74
2024/01/24 05:05:08;;;;;;;3.00;1.58;;;;;;;7.18;100.00;98368.88;5052378;28;20037;-74
2024/01/24 05:07:34;;;;;;;2.53;1.13;;;;;;;7.20;100.00;98353.50;5054364;28;20033;-75
2024/01/24 05:10:02;;;;;;;2.00;1.20;;;;;;;7.24;100.00;98342.16;5052683;28;20025;-74
2024/01/24 05:12:27;;;;;;;0.93;0.93;;;;;;;7.20;100.00;98337.59;5050188;28;20039;-75
2024/01/24 05:14:52;;;;;;;3.38;1.50;;;;;;;7.22;100.00;98344.25;5032773;28;20037;-74
2024/01/24 05:17:18;;;;;;;1.50;0.95;;;;;;;7.24;100.00;98352.78;5065574;28;20430;-74
2024/01/24 05:19:43;;;;;;;1.48;1.23;;;;;;;7.23;100.00;98353.81;5070833;28;20027;-74
2024/01/24 05:22:09;;;;;;;3.55;1.25;;;;;;;7.28;100.00;98355.75;5062494;28;20131;-74
2024/01/24 05:24:34;;;;;;;2.85;1.17;;;;;;;7.30;100.00;98361.63;5037426;28;20044;-75
2024/01/24 05:27:00;;;;;;;1.77;0.85;;;;;;;7.31;100.00;98366.72;5061154;28;20035;-75
2024/01/24 05:29:25;;;;;;;2.75;0.95;;;;;;;7.36;100.00;98368.66;5081087;28;20079;-74
2024/01/24 05:31:50;;;;;;;1.48;1.17;;;;;;;7.34;100.00;98350.28;5073861;28;20097;-74
2024/01/24 05:34:16;;;;;;;3.50;1.40;;;;;;;7.39;100.00;98352.25;5065221;28;20024;-76
2024/01/24 05:36:41;;;;;;;3.10;1.10;;;;;;;7.35;100.00;98336.00;5066954;28;20469;-75
2024/01/24 05:39:06;;;;;;;1.20;1.10;;;;;;;7.36;100.00;98342.13;5079066;28;20031;-74
2024/01/24 05:41:33;;;;;;;1.13;1.02;;;;;;;7.37;100.00;98364.94;5076197;28;20405;-75
2024/01/24 05:43:58;;;;;;;2.17;1.17;;;;;;;7.42;100.00;98352.59;5074544;28;20025;-75
2024/01/24 05:46:23;;;;;;;2.53;1.30;;;;;;;7.40;100.00;98375.88;5061529;28;20040;-74
2024/01/24 05:48:49;;;;;;;3.33;1.63;;;;;;;7.42;100.00;98368.50;5064146;28;20032;-74
2024/01/24 05:51:15;;;;;;;1.42;1.33;;;;;;;7.41;100.00;98371.38;5065950;28;20028;-75
2024/01/24 05:53:41;;;;;;;3.28;1.50;;;;;;;7.42;100.00;98365.03;5065646;28;20034;-74
2024/01/24 05:56:07;;;;;;;1.20;1.20;;;;;;;7.44;100.00;98387.66;5055765;28;20074;-75
2024/01/24 05:58:33;;;;;;;1.70;1.60;;;;;;;7.45;100.00;98388.44;5047860;28;20071;-75
2024/01/24 06:00:58;;;;;;;1.60;1.45;;;;;;;7.46;100.00;98382.91;5062191;28;20060;-75
2024/01/24 06:03:23;;;;;;;3.38;1.70;;;;;;;7.52;100.00;98389.09;5059103;28;20473;-75
2024/01/24 06:05:49;;;;;;;1.15;1.05;;;;;;;7.42;100.00;98416.31;5048790;28;20625;-75
2024/01/24 06:08:14;;;;;;;1.92;1.30;;;;;;;7.45;100.00;98410.50;5050515;28;20040;-74
2024/01/24 06:10:40;;;;;;;1.10;1.10;;;;;;;7.47;100.00;98407.59;5067356;28;20378;-75
2024/01/24 06:13:05;;;;;;;1.50;1.17;;;;;;;7.45;100.00;98404.38;5059697;28;20032;-75
2024/01/24 06:15:30;;;;;;;1.77;1.33;;;;;;;7.43;100.00;98385.22;5068162;28;20032;-74
2024/01/24 06:17:56;;;;;;;1.25;1.10;;;;;;;7.44;100.00;98403.59;5062098;28;20051;-75
2024/01/24 06:20:21;;;;;;;0.85;0.85;;;;;;;7.45;100.00;98405.19;5049892;28;20373;-75
2024/01/24 06:22:46;;;;;;;0.90;0.90;;;;;;;7.41;100.00;98419.16;5062749;28;20028;-75
2024/01/24 06:25:13;;;;;;;2.05;1.30;;;;;;;7.33;100.00;98409.75;5045453;28;20476;-75
2024/01/24 06:27:39;;;;;;;0.52;0.52;;;;;;;7.38;100.00;98409.81;5061703;28;20111;-74
2024/01/24 06:30:05;;;;;;;1.30;1.20;;;;;;;7.35;100.00;98430.75;5055069;28;20120;-75
2024/01/24 06:32:31;;;;;;;1.88;1.27;;;;;;;7.35;100.00;98417.47;5060249;28;20032;-75
2024/01/24 06:34:56;;;;;;;3.88;1.38;;;;;;;7.37;100.00;98429.47;5056926;28;20039;-75
2024/01/24 06:37:21;;;;;;;1.92;1.20;;;;;;;7.47;100.00;98418.22;5066381;28;20089;-75
2024/01/24 06:39:47;;;;;;;2.35;1.65;;;;;;;7.45;100.00;98418.47;5057882;28;20060;-75
2024/01/24 06:42:12;;;;;;;2.20;1.33;;;;;;;7.46;100.00;98419.28;5062187;28;20028;-75
2024/01/24 06:44:37;;;;;;;1.85;1.65;;;;;;;7.45;99.80;98399.88;5059146;28;20124;-75
2024/01/24 06:47:03;;;;;;;3.08;1.25;;;;;;;7.53;99.96;98415.41;5059814;28;20037;-75
2024/01/24 06:49:28;;;;;;;2.15;1.35;;;;;;;7.51;98.89;98420.16;5055742;28;20056;-75
2024/01/24 06:51:54;;;;;;;1.30;1.20;;;;;;;7.46;99.06;98422.75;5068279;28;20551;-75
2024/01/24 06:54:19;;;;;;;1.30;1.20;;;;;;;7.49;98.21;98421.47;5057276;28;20037;-75
2024/01/24 06:56:45;;;;;;;3.35;1.70;;;;;;;7.43;97.71;98399.31;5058017;28;20036;-75
2024/01/24 06:59:11;;;;;;;6.28;1.52;;;;;;;7.48;98.13;98410.03;5043176;28;20037;-75
2024/01/24 07:01:36;;;;;;;3.35;1.83;;;;;;;7.52;96.47;98419.13;5061641;28;20123;-75
2024/01/24 07:04:02;;;;;;;2.13;1.70;;;;;;;7.47;97.37;98411.06;5059058;28;20128;-75
2024/01/24 07:06:28;;;;;;;2.85;1.50;;;;;;;7.51;98.02;98412.19;5063645;28;20013;-75
2024/01/24 07:08:53;;;;;;;1.10;0.95;;;;;;;7.47;99.05;98458.03;5066584;28;20435;-75
2024/01/24 07:11:18;;;;;;;6.88;2.00;;;;;;;7.49;99.36;98443.50;5063482;28;20087;-75
2024/01/24 07:13:44;;;;;;;5.20;1.85;;;;;;;7.42;100.00;98452.66;5061750;28;20037;-75
2024/01/24 07:16:09;;;;;;;4.68;2.30;;;;;;;7.40;100.00;98455.53;5058092;28;20037;-75
2024/01/24 07:18:34;;;;;;;3.03;2.10;;;;;;;7.44;100.00;98479.78;5059001;28;20032;-75
2024/01/24 07:21:00;;;;;;;7.15;1.88;;;;;;;7.37;100.00;98449.91;5062508;28;20115;-75
2024/01/24 07:23:26;;;;;;;10.00;2.45;;;;;;;7.38;100.00;98440.91;5065363;28;20090;-74
2024/01/24 07:25:51;;;;;;;5.43;1.83;;;;;;;7.32;99.72;98431.22;5068036;28;20060;-74
2024/01/24 07:28:18;;;;;;;4.95;2.88;;;;;;;7.34;98.89;98448.53;5049358;28;20029;-74
2024/01/24 07:30:44;;;;;;;6.28;2.20;;;;;;;7.26;98.61;98448.91;5059581;28;20032;-74
2024/01/24 07:33:09;;;;;;;18.33;2.75;;;;;;;7.24;97.43;98455.50;5066650;28;20098;-75
2024/01/24 07:35:34;;;;;;;4.55;1.77;;;;;;;7.23;97.82;98465.28;5070810;28;20078;-74
2024/01/24 07:38:00;;;;;;;6.18;1.73;;;;;;;7.22;96.46;98474.31;5057328;28;20072;-74
2024/01/24 07:40:25;;;;;;;17.30;4.07;;;;;;;7.18;96.06;98456.44;5051979;28;20033;-74
2024/01/24 07:42:51;;;;;;;11.50;3.15;;;;;;;7.24;95.13;98482.84;5060092;28;20401;-75
2024/01/24 07:45:16;;;;;;;4.18;1.75;;;;;;;7.29;94.34;98493.56;5059982;28;20028;-74
2024/01/24 07:47:42;;;;;;;6.85;2.25;;;;;;;7.29;93.77;98496.22;5061251;28;20026;-75
2024/01/24 07:50:08;;;;;;;14.50;3.92;;;;;;;7.26;94.55;98522.41;5062474;28;20033;-75
2024/01/24 07:52:33;;;;;;;9.90;2.28;;;;;;;7.35;93.54;98552.88;5064392;28;20042;-74
2024/01/24 07:54:59;;;;;;;11.10;2.92;;;;;;;7.32;93.90;98570.06;5066133;28;20110;-75
2024/01/24 07:57:24;;;;;;;10.00;2.53;;;;;;;7.31;93.88;98581.75;5052368;28;20379;-74
2024/01/24 07:59:49;;;;;;;9.07;3.35;;;;;;;7.27;94.11;98625.69;5052466;28;20036;-75
2024/01/24 08:02:15;;;;;;;22.30;3.47;;;;;;;7.07;95.90;98621.81;5060790;28;20489;-75
2024/01/24 08:04:40;;;;;;;14.88;4.47;;;;;;;7.02;96.03;98606.56;5070243;28;20035;-76
2024/01/24 08:07:05;;;;;;;14.30;3.75;;;;;;;6.89;97.05;98617.41;5046903;28;20029;-75
2024/01/24 08:09:31;;;;;;;13.38;3.17;;;;;;;6.82;97.44;98596.31;5055228;28;20068;-75
2024/01/24 08:11:56;;;;;;;16.02;5.15;;;;;;;6.82;96.57;98595.50;5059857;28;22101;-75
2024/01/24 08:14:21;;;;;;;21.90;4.05;;;;;;;6.78;97.63;98591.69;5059819;28;20116;-75
2024/01/24 08:17:04;;;;;;;16.55;4.47;;;;;;;6.75;98.31;98611.50;5066665;28;20035;-75
2024/01/24 08:19:30;;;;;;;20.48;3.50;;;;;;;6.72;98.22;98616.47;5050819;28;20040;-74
2024/01/24 08:21:55;;;;;;;20.48;4.68;;;;;;;6.72;98.76;98601.38;5059427;28;20043;-75
2024/01/24 08:24:21;;;;;;;14.85;3.88;;;;;;;6.79;98.18;98602.06;5065868;28;20028;-75
2024/01/24 08:26:47;;;;;;;13.18;4.10;;;;;;;6.76;97.91;98586.63;5066905;28;20032;-74
2024/01/24 08:29:13;;;;;;;24.23;5.28;;;;;;;6.72;98.58;98592.63;5066301;28;20062;-74
2024/01/24 08:31:38;;;;;;;12.40;3.33;;;;;;;6.72;98.15;98597.91;5062385;28;20658;-75
2024/01/24 08:34:04;;;;;;;14.20;3.22;;;;;;;6.70;98.08;98597.34;5055989;28;20048;-75
2024/01/24 08:36:30;;;;;;;25.23;6.93;;;;;;;6.65;98.26;98603.34;5051201;28;20085;-74
2024/01/24 08:38:55;;;;;;;14.40;5.18;;;;;;;6.62;97.42;98592.34;5053230;28;20064;-74
2024/01/24 08:41:21;;;;;;;20.35;5.53;;;;;;;6.54;97.57;98609.44;5064012;28;20102;-74
2024/01/24 08:43:46;;;;;;;25.83;6.93;;;;;;;6.59;97.12;98627.31;5056098;28;20041;-74
2024/01/24 08:46:11;;;;;;;34.22;8.48;;;;;;;6.62;97.41;98619.69;5063855;28;20032;-75
2024/01/24 08:48:37;;;;;;;33.47;7.55;;;;;;;6.68;96.67;98639.19;5067647;28;20040;-75
2024/01/24 08:51:02;;;;;;;31.75;7.55;;;;;;;6.75;96.57;98659.25;5054876;28;20029;-75
2024/01/24 08:53:28;;;;;;;34.90;7.95;;;;;;;6.78;96.57;98673.91;5063432;28;20089;-75
2024/01/24 08:55:53;;;;;;;33.35;7.28;;;;;;;6.80;96.40;98667.34;5059654;28;20032;-75
2024/01/24 08:58:20;;;;;;;37.88;8.60;;;;;;;6.80;96.55;98675.31;5063344;28;20494;-75
2024/01/24 09:00:45;;;;;;;26.17;6.80;;;;;;;6.88;96.70;98673.38;5056370;28;20035;-75
2024/01/24 09:03:11;;;;;;;32.33;7.13;;;;;;;6.93;96.34;98673.47;5056789;28;20044;-75
2024/01/24 09:05:36;;;;;;;23.58;5.75;;;;;;;6.98;96.24;98668.28;5058501;28;20039;-75
2024/01/24 09:08:02;;;;;;;33.65;6.65;;;;;;;6.88;96.52;98684.75;5058632;28;20041;-75
2024/01/24 09:10:27;;;;;;;31.10;6.13;;;;;;;6.92;96.85;98688.59;5060396;28;20036;-75
2024/01/24 09:12:52;;;;;;;22.17;6.45;;;;;;;6.91;96.30;98689.63;5060612;28;20122;-75
2024/01/24 09:15:18;;;;;;;12.77;4.18;;;;;;;6.90;97.13;98714.53;5065154;28;20119;-75
2024/01/24 09:17:44;;;;;;;13.20;4.95;;;;;;;6.79;96.71;98696.75;5064423;28;20123;-75
2024/01/24 09:20:09;;;;;;;17.30;4.68;;;;;;;6.76;96.48;98721.88;5059366;28;20047;-75
2024/01/24 09:22:35;;;;;;;22.13;5.32;;;;;;;6.70;98.03;98711.38;5060702;28;20028;-75
2024/01/24 09:25:00;;;;;;;16.92;4.32;;;;;;;6.66;98.59;98724.25;5062277;28;20090;-75
2024/01/24 09:27:25;;;;;;;21.85;5.38;;;;;;;6.62;98.07;98722.28;5061767;28;20040;-75
2024/01/24 09:29:51;;;;;;;16.67;5.00;;;;;;;6.57;97.65;98698.31;5066652;28;20044;-75
2024/01/24 09:32:16;;;;;;;19.33;4.00;;;;;;;6.58;97.74;98708.69;5059608;28;20165;-75
2024/01/24 09:34:42;;;;;;;24.35;7.15;;;;;;;6.59;97.73;98706.84;5057140;28;21254;-75
2024/01/24 09:37:08;;;;;;;16.23;5.18;;;;;;;6.64;96.84;98713.06;5065507;28;20078;-75
2024/01/24 09:39:33;;;;;;;27.92;5.50;;;;;;;6.66;96.95;98707.56;5069057;28;20447;-75
2024/01/24 09:42:03;;;;;;;18.52;5.85;;;;;;;6.60;96.00;98700.50;5065243;28;20028;-75
2024/01/24 09:44:30;;;;;;;23.52;6.43;;;;;;;6.61;96.05;98710.91;5060780;28;20067;-75
2024/01/24 09:46:56;;;;;;;23.40;7.85;;;;;;;6.60;97.09;98713.75;5058412;28;20033;-75
2024/01/24 09:49:21;;;;;;;14.63;5.78;;;;;;;6.64;95.91;98720.25;5055798;28;20033;-75
2024/01/24 09:51:49;;;;;;;22.98;7.10;;;;;;;6.70;97.10;98738.72;5068944;28;20027;-75
2024/01/24 09:54:16;;;;;;;24.00;4.57;;;;;;;6.68;96.84;98738.09;5055598;28;20025;-75
2024/01/24 09:56:42;;;;;;;24.23;7.03;;;;;;;6.72;96.46;98718.06;5061601;28;20474;-75
2024/01/24 09:59:08;;;;;;;25.35;7.97;;;;;;;6.82;95.48;98720.97;5052097;28;20096;-75
2024/01/24 10:01:35;;;;;;;32.03;7.47;;;;;;;6.90;94.05;98735.78;5066456;28;20112;-75
2024/01/24 10:04:02;;;;;;;19.77;6.93;;;;;;;6.96;94.71;98723.44;5067697;28;20036;-75
2024/01/24 10:06:28;;;;;;;22.20;5.78;;;;;;;6.96;92.92;98729.53;5060867;28;20025;-75
2024/01/24 10:08:54;;;;;;;24.02;6.93;;;;;;;6.99;93.04;98734.38;5059196;28;20516;-75
2024/01/24 10:11:20;;;;;;;27.42;5.70;;;;;;;7.02;92.43;98733.94;5065686;28;20174;-75
2024/01/24 10:13:45;;;;;;;27.00;7.72;;;;;;;7.03;92.97;98758.63;5070004;28;20641;-75
2024/01/24 10:16:11;;;;;;;26.42;5.85;;;;;;;7.06;92.28;98734.28;5068654;28;20024;-75
2024/01/24 10:18:36;;;;;;;33.53;7.38;;;;;;;7.13;91.53;98749.06;5065031;28;20406;-75
2024/01/24 10:21:03;;;;;;;28.88;6.18;;;;;;;7.18;91.04;98759.00;5067573;28;20028;-75
2024/01/24 10:23:32;;;;;;;30.60;6.18;;;;;;;7.24;90.00;98750.13;5058789;28;20061;-75
2024/01/24 10:25:57;;;;;;;20.50;5.18;;;;;;;7.23;90.03;98761.78;5055480;28;20085;-75
2024/01/24 10:28:23;;;;;;;16.13;2.83;;;;;;;7.32;88.15;98768.34;5059535;28;20111;-75
2024/01/24 10:30:49;;;;;;;29.58;4.65;;;;;;;7.43;88.16;98778.19;5061721;28;20048;-75
2024/01/24 10:33:15;;;;;;;33.33;5.40;;;;;;;7.49;86.10;98780.72;5063388;28;20516;-75
2024/01/24 10:35:42;;;;;;;32.58;7.53;;;;;;;7.45;85.94;98771.59;5057888;28;20029;-75
2024/01/24 10:38:12;;;;;;;33.67;6.25;;;;;;;7.44;86.13;98769.19;5061865;28;20119;-75
2024/01/24 10:40:41;;;;;;;21.25;4.55;;;;;;;7.43;86.70;98760.41;5062346;28;20072;-75
2024/01/24 10:43:11;;;;;;;22.83;5.30;;;;;;;7.37;86.55;98771.94;5066112;28;20025;-75
2024/01/24 10:45:43;;;;;;;21.73;6.10;;;;;;;7.38;85.94;98776.22;5066351;28;20028;-75
2024/01/24 10:48:09;;;;;;;25.52;5.88;;;;;;;7.39;85.97;98787.66;5069416;28;20107;-75
2024/01/24 10:50:36;;;;;;;12.63;2.25;;;;;;;7.39;86.57;98814.19;5064896;28;20477;-75
2024/01/24 10:53:02;;;;;;;30.00;4.20;;;;;;;7.33;84.86;98791.22;5067074;28;20047;-74
2024/01/24 10:55:29;;;;;;;37.38;6.72;;;;;;;7.34;84.69;98776.91;5061707;28;20025;-74
2024/01/24 10:57:56;;;;;;;27.52;6.20;;;;;;;7.31;85.17;98786.16;5065928;28;20164;-75
2024/01/24 11:00:22;;;;;;;41.50;7.13;;;;;;;7.32;84.55;98782.44;5066181;28;20047;-75
2024/01/24 11:02:49;;;;;;;28.40;5.32;;;;;;;7.33;86.06;98785.91;5062781;28;20405;-75
2024/01/24 11:05:37;;;;;;;28.67;5.75;;;;;;;7.30;85.26;98781.88;5059162;28;20039;-75
2024/01/24 11:08:10;;;;;;;19.75;5.20;;;;;;;7.32;84.98;98813.47;5070160;28;20028;-75
2024/01/24 11:10:39;;;;;;;24.50;5.43;;;;;;;7.25;83.86;98787.03;5064366;28;20033;-75
2024/01/24 11:13:06;;;;;;;17.63;5.05;;;;;;;7.28;84.16;98775.97;5065351;28;20024;-75
2024/01/24 11:15:32;;;;;;;28.52;7.28;;;;;;;7.26;83.99;98793.16;5067641;28;20111;-75
2024/01/24 11:18:22;;;;;;;25.45;6.18;;;;;;;7.28;84.63;98781.28;5070239;28;20033;-75
2024/01/24 11:21:00;;;;;;;23.00;6.28;;;;;;;7.21;83.88;98769.16;5060199;28;20523;-74
2024/01/24 11:23:58;;;;;;;22.65;6.25;;;;;;;7.22;84.65;98768.13;5061377;28;20401;-75
2024/01/24 11:26:24;;;;;;;33.88;7.07;;;;;;;7.20;82.99;98772.84;5024817;28;20037;-75
2024/01/24 11:28:50;;;;;;;32.40;6.72;;;;;;;7.20;83.81;98776.31;5060422;28;20036;-75